sensor_id;sensor_type;location;lat;lon;timestamp;P1;durP1;ratioP1;P2;durP2;ratioP2
20597;SDS011;10457;48.770;11.446;2023-03-01T00:00:27;25.03;;;16.00;;
20597;SDS011;10457;48.770;11.446;2023-03-01T00:05:49;32.00;;;18.40;;
20597;SDS011;10457;48.770;11.446;2023-03-01T00:11:12;28.90;;;17.50;;
20597;SDS011;10457;48.770;11.446;2023-03-01T00:16:38;26.83;;;16.60;;
20597;SDS011;10457;48.770;11.446;2023-03-01T00:22:02;28.87;;;16.30;;
20597;SDS011;10457;48.770;11.446;2023-03-01T00:27:23;32.87;;;17.50;;
20597;SDS011;10457;48.770;11.446;2023-03-01T00:32:46;27.10;;;16.80;;
20597;SDS011;10457;48.770;11.446;2023-03-01T00:38:07;29.37;;;17.00;;
20597;SDS011;10457;48.770;11.446;2023-03-01T00:43:29;29.03;;;17.03;;
20597;SDS011;10457;48.770;11.446;2023-03-01T00:48:52;28.93;;;18.10;;
20597;SDS011;10457;48.770;11.446;2023-03-01T00:54:14;36.77;;;19.63;;
20597;SDS011;10457;48.770;11.446;2023-03-01T00:59:36;34.57;;;19.10;;
20597;SDS011;10457;48.770;11.446;2023-03-01T01:04:59;29.37;;;17.67;;
20597;SDS011;10457;48.770;11.446;2023-03-01T01:10:21;32.63;;;18.73;;
20597;SDS011;10457;48.770;11.446;2023-03-01T01:15:42;36.73;;;19.00;;
20597;SDS011;10457;48.770;11.446;2023-03-01T01:21:06;35.57;;;17.20;;
20597;SDS011;10457;48.770;11.446;2023-03-01T01:26:30;31.33;;;18.03;;
20597;SDS011;10457;48.770;11.446;2023-03-01T01:31:53;32.93;;;18.90;;
20597;SDS011;10457;48.770;11.446;2023-03-01T01:37:16;31.70;;;19.07;;
20597;SDS011;10457;48.770;11.446;2023-03-01T01:42:39;26.83;;;18.30;;
20597;SDS011;10457;48.770;11.446;2023-03-01T01:48:02;32.00;;;19.53;;
20597;SDS011;10457;48.770;11.446;2023-03-01T01:53:27;29.30;;;18.67;;
20597;SDS011;10457;48.770;11.446;2023-03-01T01:58:49;33.33;;;19.50;;
20597;SDS011;10457;48.770;11.446;2023-03-01T02:04:11;38.10;;;19.30;;
20597;SDS011;10457;48.770;11.446;2023-03-01T02:09:34;31.07;;;17.67;;
20597;SDS011;10457;48.770;11.446;2023-03-01T02:14:56;38.17;;;20.00;;
20597;SDS011;10457;48.770;11.446;2023-03-01T02:20:20;33.60;;;18.53;;
20597;SDS011;10457;48.770;11.446;2023-03-01T02:25:49;30.00;;;18.80;;
20597;SDS011;10457;48.770;11.446;2023-03-01T02:31:18;34.50;;;20.53;;
20597;SDS011;10457;48.770;11.446;2023-03-01T02:36:59;26.40;;;15.43;;
20597;SDS011;10457;48.770;11.446;2023-03-01T02:42:26;35.97;;;19.60;;
20597;SDS011;10457;48.770;11.446;2023-03-01T02:47:54;32.30;;;19.90;;
20597;SDS011;10457;48.770;11.446;2023-03-01T02:53:19;33.40;;;19.63;;
20597;SDS011;10457;48.770;11.446;2023-03-01T02:58:49;37.47;;;20.40;;
20597;SDS011;10457;48.770;11.446;2023-03-01T03:04:13;37.50;;;19.53;;
20597;SDS011;10457;48.770;11.446;2023-03-01T03:09:40;34.60;;;19.93;;
20597;SDS011;10457;48.770;11.446;2023-03-01T03:15:02;33.73;;;19.57;;
20597;SDS011;10457;48.770;11.446;2023-03-01T03:20:29;30.93;;;20.53;;
20597;SDS011;10457;48.770;11.446;2023-03-01T03:25:52;34.63;;;19.90;;
20597;SDS011;10457;48.770;11.446;2023-03-01T03:31:13;39.20;;;21.93;;
20597;SDS011;10457;48.770;11.446;2023-03-01T03:36:36;36.90;;;20.93;;
20597;SDS011;10457;48.770;11.446;2023-03-01T03:41:58;35.33;;;19.70;;
20597;SDS011;10457;48.770;11.446;2023-03-01T03:47:19;36.53;;;21.33;;
20597;SDS011;10457;48.770;11.446;2023-03-01T03:52:42;36.17;;;20.90;;
20597;SDS011;10457;48.770;11.446;2023-03-01T03:58:05;41.13;;;22.57;;
20597;SDS011;10457;48.770;11.446;2023-03-01T04:03:29;38.50;;;20.57;;
20597;SDS011;10457;48.770;11.446;2023-03-01T04:08:54;38.07;;;20.60;;
20597;SDS011;10457;48.770;11.446;2023-03-01T04:14:17;38.70;;;20.33;;
20597;SDS011;10457;48.770;11.446;2023-03-01T04:19:39;38.20;;;20.47;;
20597;SDS011;10457;48.770;11.446;2023-03-01T04:25:05;36.50;;;19.77;;
20597;SDS011;10457;48.770;11.446;2023-03-01T04:30:27;37.50;;;20.87;;
20597;SDS011;10457;48.770;11.446;2023-03-01T04:35:49;38.80;;;21.80;;
20597;SDS011;10457;48.770;11.446;2023-03-01T04:41:12;36.70;;;20.80;;
20597;SDS011;10457;48.770;11.446;2023-03-01T04:46:34;42.10;;;22.30;;
20597;SDS011;10457;48.770;11.446;2023-03-01T04:51:56;35.43;;;19.70;;
20597;SDS011;10457;48.770;11.446;2023-03-01T04:57:22;41.53;;;22.63;;
20597;SDS011;10457;48.770;11.446;2023-03-01T05:02:43;33.83;;;21.00;;
20597;SDS011;10457;48.770;11.446;2023-03-01T05:08:06;39.83;;;20.97;;
20597;SDS011;10457;48.770;11.446;2023-03-01T05:13:29;42.13;;;22.30;;
20597;SDS011;10457;48.770;11.446;2023-03-01T05:18:51;41.50;;;23.43;;
20597;SDS011;10457;48.770;11.446;2023-03-01T05:24:15;39.03;;;21.00;;
20597;SDS011;10457;48.770;11.446;2023-03-01T05:29:38;42.07;;;21.90;;
20597;SDS011;10457;48.770;11.446;2023-03-01T05:34:59;39.97;;;22.80;;
20597;SDS011;10457;48.770;11.446;2023-03-01T05:40:21;35.70;;;21.07;;
20597;SDS011;10457;48.770;11.446;2023-03-01T05:45:45;36.57;;;20.20;;
20597;SDS011;10457;48.770;11.446;2023-03-01T05:51:06;36.53;;;19.90;;
20597;SDS011;10457;48.770;11.446;2023-03-01T05:56:28;33.57;;;18.70;;
20597;SDS011;10457;48.770;11.446;2023-03-01T06:01:51;41.20;;;21.63;;
20597;SDS011;10457;48.770;11.446;2023-03-01T06:07:12;40.83;;;21.90;;
20597;SDS011;10457;48.770;11.446;2023-03-01T06:12:34;39.90;;;21.13;;
20597;SDS011;10457;48.770;11.446;2023-03-01T06:17:59;41.43;;;21.30;;
20597;SDS011;10457;48.770;11.446;2023-03-01T06:23:20;37.93;;;21.60;;
20597;SDS011;10457;48.770;11.446;2023-03-01T06:28:42;41.87;;;21.00;;
20597;SDS011;10457;48.770;11.446;2023-03-01T06:34:06;37.93;;;20.97;;
20597;SDS011;10457;48.770;11.446;2023-03-01T06:39:30;32.60;;;20.73;;
20597;SDS011;10457;48.770;11.446;2023-03-01T06:44:52;40.27;;;22.93;;
20597;SDS011;10457;48.770;11.446;2023-03-01T06:50:15;42.63;;;22.90;;
20597;SDS011;10457;48.770;11.446;2023-03-01T06:55:41;42.47;;;21.43;;
20597;SDS011;10457;48.770;11.446;2023-03-01T07:01:04;38.77;;;21.30;;
20597;SDS011;10457;48.770;11.446;2023-03-01T07:06:28;41.27;;;21.83;;
20597;SDS011;10457;48.770;11.446;2023-03-01T07:11:50;36.37;;;19.93;;
20597;SDS011;10457;48.770;11.446;2023-03-01T07:17:11;36.10;;;21.40;;
20597;SDS011;10457;48.770;11.446;2023-03-01T07:22:34;34.73;;;19.70;;
20597;SDS011;10457;48.770;11.446;2023-03-01T07:27:56;33.50;;;20.17;;
20597;SDS011;10457;48.770;11.446;2023-03-01T07:33:17;39.83;;;20.97;;
20597;SDS011;10457;48.770;11.446;2023-03-01T07:38:40;31.07;;;18.70;;
20597;SDS011;10457;48.770;11.446;2023-03-01T07:44:01;30.77;;;17.23;;
20597;SDS011;10457;48.770;11.446;2023-03-01T07:49:23;29.53;;;17.50;;
20597;SDS011;10457;48.770;11.446;2023-03-01T07:54:47;27.23;;;16.70;;
20597;SDS011;10457;48.770;11.446;2023-03-01T08:00:09;31.83;;;15.57;;
20597;SDS011;10457;48.770;11.446;2023-03-01T08:05:32;30.30;;;16.70;;
20597;SDS011;10457;48.770;11.446;2023-03-01T08:10:57;29.07;;;16.30;;
20597;SDS011;10457;48.770;11.446;2023-03-01T08:16:19;24.67;;;16.13;;
20597;SDS011;10457;48.770;11.446;2023-03-01T08:21:41;25.40;;;16.27;;
20597;SDS011;10457;48.770;11.446;2023-03-01T08:27:04;25.53;;;16.30;;
20597;SDS011;10457;48.770;11.446;2023-03-01T08:32:26;24.50;;;17.43;;
20597;SDS011;10457;48.770;11.446;2023-03-01T08:37:48;27.97;;;17.23;;
20597;SDS011;10457;48.770;11.446;2023-03-01T08:43:10;24.37;;;16.40;;
20597;SDS011;10457;48.770;11.446;2023-03-01T08:48:31;24.43;;;16.50;;
20597;SDS011;10457;48.770;11.446;2023-03-01T08:53:53;26.13;;;17.13;;
20597;SDS011;10457;48.770;11.446;2023-03-01T08:59:16;33.97;;;18.40;;
20597;SDS011;10457;48.770;11.446;2023-03-01T09:04:38;27.97;;;17.17;;
20597;SDS011;10457;48.770;11.446;2023-03-01T09:10:00;25.95;;;17.40;;
20597;SDS011;10457;48.770;11.446;2023-03-01T09:15:22;26.25;;;16.48;;
20597;SDS011;10457;48.770;11.446;2023-03-01T09:20:44;27.55;;;16.33;;
20597;SDS011;10457;48.770;11.446;2023-03-01T09:26:05;26.40;;;16.38;;
20597;SDS011;10457;48.770;11.446;2023-03-01T09:31:29;20.33;;;16.48;;
20597;SDS011;10457;48.770;11.446;2023-03-01T09:36:51;23.20;;;14.80;;
20597;SDS011;10457;48.770;11.446;2023-03-01T09:42:12;23.13;;;15.03;;
20597;SDS011;10457;48.770;11.446;2023-03-01T09:47:36;21.23;;;15.50;;
20597;SDS011;10457;48.770;11.446;2023-03-01T09:53:00;22.43;;;15.90;;
20597;SDS011;10457;48.770;11.446;2023-03-01T09:58:28;23.03;;;14.97;;
20597;SDS011;10457;48.770;11.446;2023-03-01T10:04:04;22.60;;;15.43;;
20597;SDS011;10457;48.770;11.446;2023-03-01T10:09:38;24.43;;;15.23;;
20597;SDS011;10457;48.770;11.446;2023-03-01T10:15:04;20.43;;;14.83;;
20597;SDS011;10457;48.770;11.446;2023-03-01T10:20:33;23.40;;;15.87;;
20597;SDS011;10457;48.770;11.446;2023-03-01T10:26:07;21.42;;;14.93;;
20597;SDS011;10457;48.770;11.446;2023-03-01T10:31:48;22.90;;;16.25;;
20597;SDS011;10457;48.770;11.446;2023-03-01T10:37:14;17.65;;;13.77;;
20597;SDS011;10457;48.770;11.446;2023-03-01T10:42:48;24.27;;;15.15;;
20597;SDS011;10457;48.770;11.446;2023-03-01T10:48:14;20.10;;;14.63;;
20597;SDS011;10457;48.770;11.446;2023-03-01T10:53:41;19.48;;;14.38;;
20597;SDS011;10457;48.770;11.446;2023-03-01T10:59:09;19.88;;;14.27;;
20597;SDS011;10457;48.770;11.446;2023-03-01T11:04:59;21.85;;;14.93;;
20597;SDS011;10457;48.770;11.446;2023-03-01T11:10:25;19.67;;;14.18;;
20597;SDS011;10457;48.770;11.446;2023-03-01T11:16:00;19.63;;;12.60;;
20597;SDS011;10457;48.770;11.446;2023-03-01T11:21:34;18.73;;;14.88;;
20597;SDS011;10457;48.770;11.446;2023-03-01T11:27:16;21.23;;;13.93;;
20597;SDS011;10457;48.770;11.446;2023-03-01T11:32:50;17.33;;;14.15;;
20597;SDS011;10457;48.770;11.446;2023-03-01T11:38:22;18.23;;;13.80;;
20597;SDS011;10457;48.770;11.446;2023-03-01T11:43:49;24.90;;;13.40;;
20597;SDS011;10457;48.770;11.446;2023-03-01T11:49:30;18.63;;;13.38;;
20597;SDS011;10457;48.770;11.446;2023-03-01T11:55:07;20.40;;;13.52;;
20597;SDS011;10457;48.770;11.446;2023-03-01T12:01:02;18.13;;;13.18;;
20597;SDS011;10457;48.770;11.446;2023-03-01T12:06:45;18.15;;;13.88;;
20597;SDS011;10457;48.770;11.446;2023-03-01T12:12:22;15.15;;;11.90;;
20597;SDS011;10457;48.770;11.446;2023-03-01T12:18:05;19.15;;;12.93;;
20597;SDS011;10457;48.770;11.446;2023-03-01T12:23:54;15.95;;;12.35;;
20597;SDS011;10457;48.770;11.446;2023-03-01T12:29:52;21.23;;;15.02;;
20597;SDS011;10457;48.770;11.446;2023-03-01T12:35:40;19.02;;;13.40;;
20597;SDS011;10457;48.770;11.446;2023-03-01T12:41:18;18.15;;;12.30;;
20597;SDS011;10457;48.770;11.446;2023-03-01T12:47:09;16.77;;;12.15;;
20597;SDS011;10457;48.770;11.446;2023-03-01T12:52:43;15.98;;;12.35;;
20597;SDS011;10457;48.770;11.446;2023-03-01T12:58:10;15.95;;;11.68;;
20597;SDS011;10457;48.770;11.446;2023-03-01T13:03:52;16.02;;;11.70;;
20597;SDS011;10457;48.770;11.446;2023-03-01T13:09:30;16.15;;;11.90;;
20597;SDS011;10457;48.770;11.446;2023-03-01T13:14:59;14.82;;;11.65;;
20597;SDS011;10457;48.770;11.446;2023-03-01T13:20:21;15.98;;;12.52;;
20597;SDS011;10457;48.770;11.446;2023-03-01T13:26:01;16.33;;;12.30;;
20597;SDS011;10457;48.770;11.446;2023-03-01T13:37:24;16.90;;;11.77;;
20597;SDS011;10457;48.770;11.446;2023-03-01T13:43:01;23.80;;;13.88;;
20597;SDS011;10457;48.770;11.446;2023-03-01T13:48:51;20.67;;;13.63;;
20597;SDS011;10457;48.770;11.446;2023-03-01T13:54:16;19.63;;;13.48;;
20597;SDS011;10457;48.770;11.446;2023-03-01T13:59:47;26.70;;;14.50;;
20597;SDS011;10457;48.770;11.446;2023-03-01T14:05:09;20.17;;;13.00;;
20597;SDS011;10457;48.770;11.446;2023-03-01T14:10:32;20.58;;;13.73;;
20597;SDS011;10457;48.770;11.446;2023-03-01T14:16:10;20.42;;;13.52;;
20597;SDS011;10457;48.770;11.446;2023-03-01T14:21:44;20.77;;;14.88;;
20597;SDS011;10457;48.770;11.446;2023-03-01T14:27:09;22.60;;;14.80;;
20597;SDS011;10457;48.770;11.446;2023-03-01T14:32:34;23.47;;;15.80;;
20597;SDS011;10457;48.770;11.446;2023-03-01T14:37:56;22.70;;;14.63;;
20597;SDS011;10457;48.770;11.446;2023-03-01T14:43:18;24.77;;;15.73;;
20597;SDS011;10457;48.770;11.446;2023-03-01T14:48:44;21.03;;;15.40;;
20597;SDS011;10457;48.770;11.446;2023-03-01T14:54:18;33.30;;;20.00;;
20597;SDS011;10457;48.770;11.446;2023-03-01T14:59:45;25.20;;;16.03;;
20597;SDS011;10457;48.770;11.446;2023-03-01T15:05:09;24.30;;;14.87;;
20597;SDS011;10457;48.770;11.446;2023-03-01T15:10:34;26.73;;;16.40;;
20597;SDS011;10457;48.770;11.446;2023-03-01T15:16:02;20.43;;;13.30;;
20597;SDS011;10457;48.770;11.446;2023-03-01T15:21:32;25.33;;;14.03;;
20597;SDS011;10457;48.770;11.446;2023-03-01T15:26:55;19.20;;;13.33;;
20597;SDS011;10457;48.770;11.446;2023-03-01T15:32:25;24.00;;;14.43;;
20597;SDS011;10457;48.770;11.446;2023-03-01T15:37:51;25.57;;;14.73;;
20597;SDS011;10457;48.770;11.446;2023-03-01T15:43:36;22.10;;;13.60;;
20597;SDS011;10457;48.770;11.446;2023-03-01T15:49:04;23.97;;;14.30;;
20597;SDS011;10457;48.770;11.446;2023-03-01T15:54:38;30.03;;;16.40;;
20597;SDS011;10457;48.770;11.446;2023-03-01T16:00:02;33.53;;;19.37;;
20597;SDS011;10457;48.770;11.446;2023-03-01T16:05:31;35.07;;;19.20;;
20597;SDS011;10457;48.770;11.446;2023-03-01T16:10:55;36.37;;;19.97;;
20597;SDS011;10457;48.770;11.446;2023-03-01T16:16:18;33.93;;;19.80;;
20597;SDS011;10457;48.770;11.446;2023-03-01T16:21:40;38.03;;;21.27;;
20597;SDS011;10457;48.770;11.446;2023-03-01T16:27:03;33.97;;;20.53;;
20597;SDS011;10457;48.770;11.446;2023-03-01T16:32:25;33.43;;;21.40;;
20597;SDS011;10457;48.770;11.446;2023-03-01T16:37:47;33.23;;;20.93;;
20597;SDS011;10457;48.770;11.446;2023-03-01T16:43:11;36.30;;;20.63;;
20597;SDS011;10457;48.770;11.446;2023-03-01T16:48:34;36.70;;;20.23;;
20597;SDS011;10457;48.770;11.446;2023-03-01T16:53:55;32.67;;;18.20;;
20597;SDS011;10457;48.770;11.446;2023-03-01T16:59:17;34.83;;;20.90;;
20597;SDS011;10457;48.770;11.446;2023-03-01T17:04:40;39.90;;;20.20;;
20597;SDS011;10457;48.770;11.446;2023-03-01T17:10:01;35.70;;;20.17;;
20597;SDS011;10457;48.770;11.446;2023-03-01T17:15:27;30.87;;;19.80;;
20597;SDS011;10457;48.770;11.446;2023-03-01T17:20:50;37.10;;;18.30;;
20597;SDS011;10457;48.770;11.446;2023-03-01T17:26:11;42.73;;;20.93;;
20597;SDS011;10457;48.770;11.446;2023-03-01T17:31:33;34.90;;;17.70;;
20597;SDS011;10457;48.770;11.446;2023-03-01T17:36:55;41.53;;;20.73;;
20597;SDS011;10457;48.770;11.446;2023-03-01T17:42:18;37.47;;;18.63;;
20597;SDS011;10457;48.770;11.446;2023-03-01T17:47:39;34.77;;;18.53;;
20597;SDS011;10457;48.770;11.446;2023-03-01T17:53:02;35.03;;;18.43;;
20597;SDS011;10457;48.770;11.446;2023-03-01T17:58:28;38.03;;;20.37;;
20597;SDS011;10457;48.770;11.446;2023-03-01T18:03:50;32.27;;;18.47;;
20597;SDS011;10457;48.770;11.446;2023-03-01T18:09:15;31.60;;;17.87;;
20597;SDS011;10457;48.770;11.446;2023-03-01T18:14:37;37.13;;;19.63;;
20597;SDS011;10457;48.770;11.446;2023-03-01T18:19:59;33.80;;;18.73;;
20597;SDS011;10457;48.770;11.446;2023-03-01T18:25:22;37.63;;;18.70;;
20597;SDS011;10457;48.770;11.446;2023-03-01T18:30:43;33.97;;;19.53;;
20597;SDS011;10457;48.770;11.446;2023-03-01T18:36:05;32.83;;;18.83;;
20597;SDS011;10457;48.770;11.446;2023-03-01T18:41:38;34.43;;;20.07;;
20597;SDS011;10457;48.770;11.446;2023-03-01T18:46:59;39.77;;;20.60;;
20597;SDS011;10457;48.770;11.446;2023-03-01T18:52:21;38.13;;;20.67;;
20597;SDS011;10457;48.770;11.446;2023-03-01T18:57:44;35.10;;;21.50;;
20597;SDS011;10457;48.770;11.446;2023-03-01T19:03:05;38.00;;;21.30;;
20597;SDS011;10457;48.770;11.446;2023-03-01T19:08:28;33.63;;;19.97;;
20597;SDS011;10457;48.770;11.446;2023-03-01T19:13:51;37.87;;;20.17;;
20597;SDS011;10457;48.770;11.446;2023-03-01T19:19:13;49.80;;;22.20;;
20597;SDS011;10457;48.770;11.446;2023-03-01T19:24:35;35.80;;;21.80;;
20597;SDS011;10457;48.770;11.446;2023-03-01T19:29:58;42.57;;;20.17;;
20597;SDS011;10457;48.770;11.446;2023-03-01T19:35:19;32.27;;;19.33;;
20597;SDS011;10457;48.770;11.446;2023-03-01T19:40:41;35.63;;;19.03;;
20597;SDS011;10457;48.770;11.446;2023-03-01T19:46:04;26.73;;;17.97;;
20597;SDS011;10457;48.770;11.446;2023-03-01T19:51:26;29.67;;;17.40;;
20597;SDS011;10457;48.770;11.446;2023-03-01T19:56:48;28.53;;;16.67;;
20597;SDS011;10457;48.770;11.446;2023-03-01T20:02:11;34.03;;;18.17;;
20597;SDS011;10457;48.770;11.446;2023-03-01T20:07:33;35.90;;;19.40;;
20597;SDS011;10457;48.770;11.446;2023-03-01T20:12:54;34.33;;;18.80;;
20597;SDS011;10457;48.770;11.446;2023-03-01T20:18:17;36.30;;;21.17;;
20597;SDS011;10457;48.770;11.446;2023-03-01T20:23:38;42.57;;;27.47;;
20597;SDS011;10457;48.770;11.446;2023-03-01T20:29:00;32.87;;;19.57;;
20597;SDS011;10457;48.770;11.446;2023-03-01T20:34:23;33.60;;;19.37;;
20597;SDS011;10457;48.770;11.446;2023-03-01T20:39:44;29.77;;;19.93;;
20597;SDS011;10457;48.770;11.446;2023-03-01T20:45:06;36.53;;;21.40;;
20597;SDS011;10457;48.770;11.446;2023-03-01T20:50:29;31.60;;;18.63;;
20597;SDS011;10457;48.770;11.446;2023-03-01T20:55:51;29.30;;;17.20;;
20597;SDS011;10457;48.770;11.446;2023-03-01T21:01:14;26.53;;;17.77;;
20597;SDS011;10457;48.770;11.446;2023-03-01T21:06:43;31.23;;;19.50;;
20597;SDS011;10457;48.770;11.446;2023-03-01T21:12:05;25.70;;;14.43;;
20597;SDS011;10457;48.770;11.446;2023-03-01T21:17:28;27.43;;;14.33;;
20597;SDS011;10457;48.770;11.446;2023-03-01T21:22:51;29.57;;;15.13;;
20597;SDS011;10457;48.770;11.446;2023-03-01T21:28:15;26.67;;;15.73;;
20597;SDS011;10457;48.770;11.446;2023-03-01T21:33:42;33.87;;;16.27;;
20597;SDS011;10457;48.770;11.446;2023-03-01T21:39:11;27.80;;;15.97;;
20597;SDS011;10457;48.770;11.446;2023-03-01T21:44:34;26.77;;;15.60;;
20597;SDS011;10457;48.770;11.446;2023-03-01T21:49:56;26.57;;;16.10;;
20597;SDS011;10457;48.770;11.446;2023-03-01T21:55:18;25.03;;;14.30;;
20597;SDS011;10457;48.770;11.446;2023-03-01T22:00:47;23.63;;;15.73;;
20597;SDS011;10457;48.770;11.446;2023-03-01T22:06:10;25.60;;;15.63;;
20597;SDS011;10457;48.770;11.446;2023-03-01T22:11:38;30.83;;;15.83;;
20597;SDS011;10457;48.770;11.446;2023-03-01T22:17:12;31.93;;;16.67;;
20597;SDS011;10457;48.770;11.446;2023-03-01T22:22:33;23.00;;;14.07;;
20597;SDS011;10457;48.770;11.446;2023-03-01T22:27:57;25.23;;;13.87;;
20597;SDS011;10457;48.770;11.446;2023-03-01T22:33:20;27.20;;;14.50;;
20597;SDS011;10457;48.770;11.446;2023-03-01T22:38:48;28.57;;;15.83;;
20597;SDS011;10457;48.770;11.446;2023-03-01T22:44:21;29.20;;;14.97;;
20597;SDS011;10457;48.770;11.446;2023-03-01T22:49:43;26.97;;;13.30;;
20597;SDS011;10457;48.770;11.446;2023-03-01T22:55:05;25.73;;;14.93;;
20597;SDS011;10457;48.770;11.446;2023-03-01T23:00:29;24.70;;;14.17;;
20597;SDS011;10457;48.770;11.446;2023-03-01T23:05:51;20.93;;;13.93;;
20597;SDS011;10457;48.770;11.446;2023-03-01T23:11:13;24.13;;;15.70;;
20597;SDS011;10457;48.770;11.446;2023-03-01T23:16:37;25.10;;;13.90;;
20597;SDS011;10457;48.770;11.446;2023-03-01T23:21:59;28.43;;;14.07;;
20597;SDS011;10457;48.770;11.446;2023-03-01T23:27:20;30.60;;;15.93;;
20597;SDS011;10457;48.770;11.446;2023-03-01T23:32:43;26.37;;;14.07;;
20597;SDS011;10457;48.770;11.446;2023-03-01T23:38:04;29.37;;;15.10;;
20597;SDS011;10457;48.770;11.446;2023-03-01T23:43:26;27.17;;;13.67;;
20597;SDS011;10457;48.770;11.446;2023-03-01T23:48:50;28.10;;;14.27;;
20597;SDS011;10457;48.770;11.446;2023-03-01T23:54:13;22.93;;;13.27;;
20597;SDS011;10457;48.770;11.446;2023-03-01T23:59:37;26.50;;;14.07;;
